sensor_id;sensor_type;location;lat;lon;timestamp;temperature;humidity
40059;SHT31;25763;49.972;8.568;2022-08-02T00:00:09;21.54;67.73
40059;SHT31;25763;49.972;8.568;2022-08-02T00:02:35;21.51;67.72
40059;SHT31;25763;49.972;8.568;2022-08-02T00:05:00;21.47;68.19
40059;SHT31;25763;49.972;8.568;2022-08-02T00:07:26;21.32;68.24
40059;SHT31;25763;49.972;8.568;2022-08-02T00:09:51;21.23;68.40
40059;SHT31;25763;49.972;8.568;2022-08-02T00:12:16;21.11;68.98
40059;SHT31;25763;49.972;8.568;2022-08-02T00:14:42;20.97;69.43
40059;SHT31;25763;49.972;8.568;2022-08-02T00:17:07;20.83;69.46
40059;SHT31;25763;49.972;8.568;2022-08-02T00:19:33;20.70;70.41
40059;SHT31;25763;49.972;8.568;2022-08-02T00:21:58;20.56;70.46
40059;SHT31;25763;49.972;8.568;2022-08-02T00:24:23;20.33;71.11
40059;SHT31;25763;49.972;8.568;2022-08-02T00:26:49;20.26;71.56
40059;SHT31;25763;49.972;8.568;2022-08-02T00:29:14;20.11;72.14
40059;SHT31;25763;49.972;8.568;2022-08-02T00:31:39;20.18;71.63
40059;SHT31;25763;49.972;8.568;2022-08-02T00:34:05;20.32;71.77
40059;SHT31;25763;49.972;8.568;2022-08-02T00:36:30;20.39;71.53
40059;SHT31;25763;49.972;8.568;2022-08-02T00:38:56;20.45;71.59
40059;SHT31;25763;49.972;8.568;2022-08-02T00:41:21;20.49;71.33
40059;SHT31;25763;49.972;8.568;2022-08-02T00:43:48;20.47;71.33
40059;SHT31;25763;49.972;8.568;2022-08-02T00:46:15;20.50;71.24
40059;SHT31;25763;49.972;8.568;2022-08-02T00:48:40;20.49;71.21
40059;SHT31;25763;49.972;8.568;2022-08-02T00:51:06;20.49;71.19
40059;SHT31;25763;49.972;8.568;2022-08-02T00:53:32;20.46;71.04
40059;SHT31;25763;49.972;8.568;2022-08-02T00:55:57;20.49;70.89
40059;SHT31;25763;49.972;8.568;2022-08-02T00:58:23;20.46;71.00
40059;SHT31;25763;49.972;8.568;2022-08-02T01:00:48;20.45;70.97
40059;SHT31;25763;49.972;8.568;2022-08-02T01:03:14;20.45;71.07
40059;SHT31;25763;49.972;8.568;2022-08-02T01:05:39;20.42;71.12
40059;SHT31;25763;49.972;8.568;2022-08-02T01:08:04;20.40;71.11
40059;SHT31;25763;49.972;8.568;2022-08-02T01:10:30;20.38;71.01
40059;SHT31;25763;49.972;8.568;2022-08-02T01:12:55;20.39;71.21
40059;SHT31;25763;49.972;8.568;2022-08-02T01:15:21;20.38;71.13
40059;SHT31;25763;49.972;8.568;2022-08-02T01:29:01;19.76;72.73
40059;SHT31;25763;49.972;8.568;2022-08-02T01:31:33;19.74;72.28
40059;SHT31;25763;49.972;8.568;2022-08-02T01:34:23;19.59;73.02
40059;SHT31;25763;49.972;8.568;2022-08-02T01:37:04;19.46;73.46
40059;SHT31;25763;49.972;8.568;2022-08-02T01:39:33;19.37;73.91
40059;SHT31;25763;49.972;8.568;2022-08-02T01:42:00;19.34;74.11
40059;SHT31;25763;49.972;8.568;2022-08-02T01:44:28;19.37;74.05
40059;SHT31;25763;49.972;8.568;2022-08-02T01:46:59;19.44;74.02
40059;SHT31;25763;49.972;8.568;2022-08-02T01:49:25;19.46;73.79
40059;SHT31;25763;49.972;8.568;2022-08-02T01:51:52;19.53;73.43
40059;SHT31;25763;49.972;8.568;2022-08-02T01:54:37;19.58;73.41
40059;SHT31;25763;49.972;8.568;2022-08-02T01:57:04;19.59;73.20
40059;SHT31;25763;49.972;8.568;2022-08-02T01:59:31;19.59;73.19
40059;SHT31;25763;49.972;8.568;2022-08-02T02:01:58;19.62;73.13
40059;SHT31;25763;49.972;8.568;2022-08-02T02:04:25;19.59;73.19
40059;SHT31;25763;49.972;8.568;2022-08-02T02:06:52;19.59;73.13
40059;SHT31;25763;49.972;8.568;2022-08-02T02:09:19;19.58;73.14
40059;SHT31;25763;49.972;8.568;2022-08-02T02:11:45;19.58;73.12
40059;SHT31;25763;49.972;8.568;2022-08-02T02:14:13;19.55;73.22
40059;SHT31;25763;49.972;8.568;2022-08-02T02:16:43;19.55;73.18
40059;SHT31;25763;49.972;8.568;2022-08-02T02:19:09;19.53;73.08
40059;SHT31;25763;49.972;8.568;2022-08-02T02:21:36;19.48;73.10
40059;SHT31;25763;49.972;8.568;2022-08-02T02:24:02;19.46;73.20
40059;SHT31;25763;49.972;8.568;2022-08-02T02:26:29;19.46;73.26
40059;SHT31;25763;49.972;8.568;2022-08-02T02:28:59;19.41;73.19
40059;SHT31;25763;49.972;8.568;2022-08-02T02:31:27;19.38;73.19
40059;SHT31;25763;49.972;8.568;2022-08-02T02:34:00;19.37;73.25
40059;SHT31;25763;49.972;8.568;2022-08-02T02:36:27;19.35;73.28
40059;SHT31;25763;49.972;8.568;2022-08-02T02:38:56;19.32;73.32
40059;SHT31;25763;49.972;8.568;2022-08-02T02:41:23;19.30;73.34
40059;SHT31;25763;49.972;8.568;2022-08-02T02:43:53;19.26;73.43
40059;SHT31;25763;49.972;8.568;2022-08-02T02:46:19;19.23;73.46
40059;SHT31;25763;49.972;8.568;2022-08-02T02:48:46;19.18;73.62
40059;SHT31;25763;49.972;8.568;2022-08-02T02:51:12;19.17;73.71
40059;SHT31;25763;49.972;8.568;2022-08-02T02:53:40;19.15;73.83
40059;SHT31;25763;49.972;8.568;2022-08-02T02:56:06;19.14;73.80
40059;SHT31;25763;49.972;8.568;2022-08-02T02:58:32;19.06;73.96
40059;SHT31;25763;49.972;8.568;2022-08-02T03:00:58;18.93;73.99
40059;SHT31;25763;49.972;8.568;2022-08-02T03:03:43;18.44;75.35
40059;SHT31;25763;49.972;8.568;2022-08-02T03:06:09;18.16;76.52
40059;SHT31;25763;49.972;8.568;2022-08-02T03:08:34;18.09;76.50
40059;SHT31;25763;49.972;8.568;2022-08-02T03:10:59;18.18;76.04
40059;SHT31;25763;49.972;8.568;2022-08-02T03:13:25;18.33;75.80
40059;SHT31;25763;49.972;8.568;2022-08-02T03:15:51;18.40;75.28
40059;SHT31;25763;49.972;8.568;2022-08-02T03:18:34;18.33;75.30
40059;SHT31;25763;49.972;8.568;2022-08-02T03:21:01;18.24;75.60
40059;SHT31;25763;49.972;8.568;2022-08-02T03:23:27;18.13;76.12
40059;SHT31;25763;49.972;8.568;2022-08-02T03:25:52;17.98;76.93
40059;SHT31;25763;49.972;8.568;2022-08-02T03:28:18;17.93;77.00
40059;SHT31;25763;49.972;8.568;2022-08-02T03:30:43;18.00;76.77
40059;SHT31;25763;49.972;8.568;2022-08-02T03:33:08;18.02;76.72
40059;SHT31;25763;49.972;8.568;2022-08-02T03:35:35;18.09;76.42
40059;SHT31;25763;49.972;8.568;2022-08-02T03:38:02;17.84;77.14
40059;SHT31;25763;49.972;8.568;2022-08-02T03:40:29;17.89;76.98
40059;SHT31;25763;49.972;8.568;2022-08-02T03:42:56;17.93;76.60
40059;SHT31;25763;49.972;8.568;2022-08-02T03:45:22;17.92;76.71
40059;SHT31;25763;49.972;8.568;2022-08-02T03:47:48;17.73;77.62
40059;SHT31;25763;49.972;8.568;2022-08-02T03:50:14;17.43;78.57
40059;SHT31;25763;49.972;8.568;2022-08-02T03:52:41;17.16;79.41
40059;SHT31;25763;49.972;8.568;2022-08-02T03:55:09;17.09;80.02
40059;SHT31;25763;49.972;8.568;2022-08-02T03:57:37;16.98;80.44
40059;SHT31;25763;49.972;8.568;2022-08-02T04:00:04;16.78;81.35
40059;SHT31;25763;49.972;8.568;2022-08-02T04:02:30;16.73;81.86
40059;SHT31;25763;49.972;8.568;2022-08-02T04:04:55;16.90;80.91
40059;SHT31;25763;49.972;8.568;2022-08-02T04:07:21;16.99;80.55
40059;SHT31;25763;49.972;8.568;2022-08-02T04:09:46;17.12;80.16
40059;SHT31;25763;49.972;8.568;2022-08-02T04:12:11;17.26;79.68
40059;SHT31;25763;49.972;8.568;2022-08-02T04:14:37;17.40;79.22
40059;SHT31;25763;49.972;8.568;2022-08-02T04:17:06;17.51;78.74
40059;SHT31;25763;49.972;8.568;2022-08-02T04:19:42;17.60;78.29
40059;SHT31;25763;49.972;8.568;2022-08-02T04:22:15;17.67;77.99
40059;SHT31;25763;49.972;8.568;2022-08-02T04:24:46;17.75;77.70
40059;SHT31;25763;49.972;8.568;2022-08-02T04:27:14;17.79;77.60
40059;SHT31;25763;49.972;8.568;2022-08-02T04:29:40;17.85;77.47
40059;SHT31;25763;49.972;8.568;2022-08-02T04:32:06;17.88;77.32
40059;SHT31;25763;49.972;8.568;2022-08-02T04:34:32;17.91;77.17
40059;SHT31;25763;49.972;8.568;2022-08-02T04:36:58;17.95;77.19
40059;SHT31;25763;49.972;8.568;2022-08-02T04:39:24;17.96;77.08
40059;SHT31;25763;49.972;8.568;2022-08-02T04:41:49;17.99;76.94
40059;SHT31;25763;49.972;8.568;2022-08-02T04:44:15;18.02;76.66
40059;SHT31;25763;49.972;8.568;2022-08-02T04:46:42;18.05;76.53
40059;SHT31;25763;49.972;8.568;2022-08-02T04:49:08;18.06;76.25
40059;SHT31;25763;49.972;8.568;2022-08-02T04:51:36;18.00;76.42
40059;SHT31;25763;49.972;8.568;2022-08-02T04:54:03;17.93;76.37
40059;SHT31;25763;49.972;8.568;2022-08-02T04:56:28;17.95;76.42
40059;SHT31;25763;49.972;8.568;2022-08-02T04:58:54;18.05;76.15
40059;SHT31;25763;49.972;8.568;2022-08-02T05:01:19;18.03;76.02
40059;SHT31;25763;49.972;8.568;2022-08-02T05:03:44;17.99;75.97
40059;SHT31;25763;49.972;8.568;2022-08-02T05:06:10;18.12;75.55
40059;SHT31;25763;49.972;8.568;2022-08-02T05:08:35;18.33;75.38
40059;SHT31;25763;49.972;8.568;2022-08-02T05:11:00;18.50;75.08
40059;SHT31;25763;49.972;8.568;2022-08-02T05:13:26;18.62;74.70
40059;SHT31;25763;49.972;8.568;2022-08-02T05:15:51;18.72;74.50
40059;SHT31;25763;49.972;8.568;2022-08-02T05:18:17;18.79;74.29
40059;SHT31;25763;49.972;8.568;2022-08-02T05:20:42;18.83;74.10
40059;SHT31;25763;49.972;8.568;2022-08-02T05:23:08;18.89;74.13
40059;SHT31;25763;49.972;8.568;2022-08-02T05:25:33;18.96;74.17
40059;SHT31;25763;49.972;8.568;2022-08-02T05:27:58;19.00;73.97
40059;SHT31;25763;49.972;8.568;2022-08-02T05:30:24;19.02;74.55
40059;SHT31;25763;49.972;8.568;2022-08-02T05:32:50;19.00;74.56
40059;SHT31;25763;49.972;8.568;2022-08-02T05:35:22;19.04;74.87
40059;SHT31;25763;49.972;8.568;2022-08-02T05:37:49;19.00;75.02
40059;SHT31;25763;49.972;8.568;2022-08-02T05:40:15;19.02;75.11
40059;SHT31;25763;49.972;8.568;2022-08-02T05:42:41;19.04;75.04
40059;SHT31;25763;49.972;8.568;2022-08-02T05:45:07;19.14;75.06
40059;SHT31;25763;49.972;8.568;2022-08-02T05:47:33;19.26;74.98
40059;SHT31;25763;49.972;8.568;2022-08-02T05:49:58;19.42;74.36
40059;SHT31;25763;49.972;8.568;2022-08-02T05:52:25;19.62;73.96
40059;SHT31;25763;49.972;8.568;2022-08-02T05:55:38;19.79;73.90
40059;SHT31;25763;49.972;8.568;2022-08-02T05:58:02;20.03;73.27
40059;SHT31;25763;49.972;8.568;2022-08-02T06:00:31;20.29;72.29
40059;SHT31;25763;49.972;8.568;2022-08-02T06:05:59;20.31;72.71
40059;SHT31;25763;49.972;8.568;2022-08-02T06:08:31;20.45;72.66
40059;SHT31;25763;49.972;8.568;2022-08-02T06:11:00;20.53;72.57
40059;SHT31;25763;49.972;8.568;2022-08-02T06:13:26;20.33;72.87
40059;SHT31;25763;49.972;8.568;2022-08-02T06:15:52;20.35;73.52
40059;SHT31;25763;49.972;8.568;2022-08-02T06:18:18;20.60;73.16
40059;SHT31;25763;49.972;8.568;2022-08-02T06:20:49;20.81;72.70
40059;SHT31;25763;49.972;8.568;2022-08-02T06:23:14;21.09;72.57
40059;SHT31;25763;49.972;8.568;2022-08-02T06:25:41;21.49;71.37
40059;SHT31;25763;49.972;8.568;2022-08-02T06:28:06;21.51;70.72
40059;SHT31;25763;49.972;8.568;2022-08-02T06:30:32;21.75;70.46
40059;SHT31;25763;49.972;8.568;2022-08-02T06:32:58;22.05;69.32
40059;SHT31;25763;49.972;8.568;2022-08-02T06:36:03;22.24;69.65
40059;SHT31;25763;49.972;8.568;2022-08-02T06:38:40;22.36;69.14
40059;SHT31;25763;49.972;8.568;2022-08-02T06:41:12;22.20;67.93
40059;SHT31;25763;49.972;8.568;2022-08-02T06:46:10;22.15;68.51
40059;SHT31;25763;49.972;8.568;2022-08-02T06:48:35;21.73;68.25
40059;SHT31;25763;49.972;8.568;2022-08-02T06:51:02;21.68;69.02
40059;SHT31;25763;49.972;8.568;2022-08-02T06:53:28;22.05;68.83
40059;SHT31;25763;49.972;8.568;2022-08-02T06:55:54;22.19;68.40
40059;SHT31;25763;49.972;8.568;2022-08-02T06:58:19;22.45;68.71
40059;SHT31;25763;49.972;8.568;2022-08-02T07:00:44;22.81;68.08
40059;SHT31;25763;49.972;8.568;2022-08-02T07:03:10;23.07;66.95
40059;SHT31;25763;49.972;8.568;2022-08-02T07:05:35;23.13;66.44
40059;SHT31;25763;49.972;8.568;2022-08-02T07:08:01;23.13;66.18
40059;SHT31;25763;49.972;8.568;2022-08-02T07:10:27;23.37;66.42
40059;SHT31;25763;49.972;8.568;2022-08-02T07:12:52;23.62;66.91
40059;SHT31;25763;49.972;8.568;2022-08-02T07:15:18;23.57;63.70
40059;SHT31;25763;49.972;8.568;2022-08-02T07:17:43;23.02;64.76
40059;SHT31;25763;49.972;8.568;2022-08-02T07:20:09;22.78;65.97
40059;SHT31;25763;49.972;8.568;2022-08-02T07:22:34;22.88;65.69
40059;SHT31;25763;49.972;8.568;2022-08-02T07:25:00;23.22;65.62
40059;SHT31;25763;49.972;8.568;2022-08-02T07:27:26;23.30;64.12
40059;SHT31;25763;49.972;8.568;2022-08-02T07:29:52;23.45;65.01
40059;SHT31;25763;49.972;8.568;2022-08-02T07:32:22;23.83;65.26
40059;SHT31;25763;49.972;8.568;2022-08-02T07:34:48;23.63;62.40
40059;SHT31;25763;49.972;8.568;2022-08-02T07:37:14;23.74;62.85
40059;SHT31;25763;49.972;8.568;2022-08-02T07:39:39;23.78;62.26
40059;SHT31;25763;49.972;8.568;2022-08-02T07:42:04;23.88;61.45
40059;SHT31;25763;49.972;8.568;2022-08-02T07:44:30;24.00;62.19
40059;SHT31;25763;49.972;8.568;2022-08-02T07:47:00;23.83;61.40
40059;SHT31;25763;49.972;8.568;2022-08-02T07:49:26;23.65;60.85
40059;SHT31;25763;49.972;8.568;2022-08-02T07:51:51;23.86;61.82
40059;SHT31;25763;49.972;8.568;2022-08-02T07:54:17;24.22;61.20
40059;SHT31;25763;49.972;8.568;2022-08-02T07:56:42;24.14;60.57
40059;SHT31;25763;49.972;8.568;2022-08-02T07:59:08;24.48;59.79
40059;SHT31;25763;49.972;8.568;2022-08-02T08:01:34;24.69;57.97
40059;SHT31;25763;49.972;8.568;2022-08-02T08:04:00;24.91;57.35
40059;SHT31;25763;49.972;8.568;2022-08-02T08:06:25;24.84;55.77
40059;SHT31;25763;49.972;8.568;2022-08-02T08:08:50;24.97;55.90
40059;SHT31;25763;49.972;8.568;2022-08-02T08:11:16;24.94;56.57
40059;SHT31;25763;49.972;8.568;2022-08-02T08:13:41;24.79;55.60
40059;SHT31;25763;49.972;8.568;2022-08-02T08:16:06;24.76;55.48
40059;SHT31;25763;49.972;8.568;2022-08-02T08:18:32;25.06;55.58
40059;SHT31;25763;49.972;8.568;2022-08-02T08:20:57;25.11;54.57
40059;SHT31;25763;49.972;8.568;2022-08-02T08:23:23;25.00;54.20
40059;SHT31;25763;49.972;8.568;2022-08-02T08:25:49;25.24;54.02
40059;SHT31;25763;49.972;8.568;2022-08-02T08:28:14;25.15;52.58
40059;SHT31;25763;49.972;8.568;2022-08-02T08:30:40;25.47;53.82
40059;SHT31;25763;49.972;8.568;2022-08-02T08:33:06;25.67;54.78
40059;SHT31;25763;49.972;8.568;2022-08-02T08:35:32;25.70;53.45
40059;SHT31;25763;49.972;8.568;2022-08-02T08:37:57;26.04;52.58
40059;SHT31;25763;49.972;8.568;2022-08-02T08:40:24;25.74;51.87
40059;SHT31;25763;49.972;8.568;2022-08-02T08:42:49;25.94;52.06
40059;SHT31;25763;49.972;8.568;2022-08-02T08:45:15;26.33;52.96
40059;SHT31;25763;49.972;8.568;2022-08-02T08:47:42;26.56;51.73
40059;SHT31;25763;49.972;8.568;2022-08-02T08:50:10;26.64;50.43
40059;SHT31;25763;49.972;8.568;2022-08-02T08:52:53;26.65;50.63
40059;SHT31;25763;49.972;8.568;2022-08-02T08:55:22;26.71;50.14
40059;SHT31;25763;49.972;8.568;2022-08-02T08:57:52;26.70;50.16
40059;SHT31;25763;49.972;8.568;2022-08-02T09:00:18;26.43;49.38
40059;SHT31;25763;49.972;8.568;2022-08-02T09:02:44;26.49;48.17
40059;SHT31;25763;49.972;8.568;2022-08-02T09:05:12;26.88;48.54
40059;SHT31;25763;49.972;8.568;2022-08-02T09:07:38;26.36;50.07
40059;SHT31;25763;49.972;8.568;2022-08-02T09:10:34;26.79;48.77
40059;SHT31;25763;49.972;8.568;2022-08-02T09:13:21;27.02;48.54
40059;SHT31;25763;49.972;8.568;2022-08-02T09:15:55;27.08;48.60
40059;SHT31;25763;49.972;8.568;2022-08-02T09:18:38;27.20;47.94
40059;SHT31;25763;49.972;8.568;2022-08-02T09:21:08;27.58;48.10
40059;SHT31;25763;49.972;8.568;2022-08-02T09:23:38;27.23;46.56
40059;SHT31;25763;49.972;8.568;2022-08-02T09:26:08;27.19;43.86
40059;SHT31;25763;49.972;8.568;2022-08-02T09:28:35;27.20;46.89
40059;SHT31;25763;49.972;8.568;2022-08-02T09:33:34;27.40;46.00
40059;SHT31;25763;49.972;8.568;2022-08-02T09:36:04;27.57;45.13
40059;SHT31;25763;49.972;8.568;2022-08-02T09:38:31;27.64;44.35
40059;SHT31;25763;49.972;8.568;2022-08-02T09:40:57;27.58;45.82
40059;SHT31;25763;49.972;8.568;2022-08-02T09:43:39;27.77;44.09
40059;SHT31;25763;49.972;8.568;2022-08-02T09:46:15;28.27;46.81
40059;SHT31;25763;49.972;8.568;2022-08-02T09:48:52;28.51;44.98
40059;SHT31;25763;49.972;8.568;2022-08-02T09:51:31;28.58;43.75
40059;SHT31;25763;49.972;8.568;2022-08-02T09:53:59;28.27;41.25
40059;SHT31;25763;49.972;8.568;2022-08-02T09:56:27;28.61;43.69
40059;SHT31;25763;49.972;8.568;2022-08-02T09:58:53;28.13;43.51
40059;SHT31;25763;49.972;8.568;2022-08-02T10:01:29;28.08;42.22
40059;SHT31;25763;49.972;8.568;2022-08-02T10:03:58;27.78;43.66
40059;SHT31;25763;49.972;8.568;2022-08-02T10:06:24;26.99;43.82
40059;SHT31;25763;49.972;8.568;2022-08-02T10:08:50;27.32;44.70
40059;SHT31;25763;49.972;8.568;2022-08-02T10:11:18;27.12;42.03
40059;SHT31;25763;49.972;8.568;2022-08-02T10:13:43;26.92;44.65
40059;SHT31;25763;49.972;8.568;2022-08-02T10:16:09;27.09;45.63
40059;SHT31;25763;49.972;8.568;2022-08-02T10:18:34;27.04;45.23
40059;SHT31;25763;49.972;8.568;2022-08-02T10:21:01;27.34;44.92
40059;SHT31;25763;49.972;8.568;2022-08-02T10:23:28;27.32;45.19
40059;SHT31;25763;49.972;8.568;2022-08-02T10:25:57;27.24;46.47
40059;SHT31;25763;49.972;8.568;2022-08-02T10:28:26;27.12;44.95
40059;SHT31;25763;49.972;8.568;2022-08-02T10:30:57;27.54;44.53
40059;SHT31;25763;49.972;8.568;2022-08-02T10:33:24;27.98;43.06
40059;SHT31;25763;49.972;8.568;2022-08-02T10:35:52;27.88;43.28
40059;SHT31;25763;49.972;8.568;2022-08-02T10:38:18;27.61;43.56
40059;SHT31;25763;49.972;8.568;2022-08-02T10:40:54;27.84;43.45
40059;SHT31;25763;49.972;8.568;2022-08-02T10:46:29;29.09;42.96
40059;SHT31;25763;49.972;8.568;2022-08-02T10:49:10;29.14;42.95
40059;SHT31;25763;49.972;8.568;2022-08-02T10:54:18;29.52;42.08
40059;SHT31;25763;49.972;8.568;2022-08-02T10:56:46;29.72;41.95
40059;SHT31;25763;49.972;8.568;2022-08-02T10:59:27;30.47;41.32
40059;SHT31;25763;49.972;8.568;2022-08-02T11:01:54;30.53;39.12
40059;SHT31;25763;49.972;8.568;2022-08-02T11:09:31;30.27;38.99
40059;SHT31;25763;49.972;8.568;2022-08-02T11:12:08;30.06;40.07
40059;SHT31;25763;49.972;8.568;2022-08-02T11:14:35;29.96;38.96
40059;SHT31;25763;49.972;8.568;2022-08-02T11:19:30;30.25;39.20
40059;SHT31;25763;49.972;8.568;2022-08-02T11:22:10;29.83;39.15
40059;SHT31;25763;49.972;8.568;2022-08-02T11:24:39;30.17;39.34
40059;SHT31;25763;49.972;8.568;2022-08-02T11:27:07;30.45;39.91
40059;SHT31;25763;49.972;8.568;2022-08-02T11:29:40;30.31;38.06
40059;SHT31;25763;49.972;8.568;2022-08-02T11:32:08;30.45;39.89
40059;SHT31;25763;49.972;8.568;2022-08-02T11:34:39;30.28;38.67
40059;SHT31;25763;49.972;8.568;2022-08-02T11:37:06;29.90;37.51
40059;SHT31;25763;49.972;8.568;2022-08-02T11:39:32;30.58;38.05
40059;SHT31;25763;49.972;8.568;2022-08-02T11:41:58;30.65;37.46
40059;SHT31;25763;49.972;8.568;2022-08-02T11:44:25;29.34;39.12
40059;SHT31;25763;49.972;8.568;2022-08-02T11:46:55;29.82;39.97
40059;SHT31;25763;49.972;8.568;2022-08-02T11:49:21;30.41;39.69
40059;SHT31;25763;49.972;8.568;2022-08-02T11:52:03;30.34;39.59
40059;SHT31;25763;49.972;8.568;2022-08-02T11:54:33;30.79;38.48
40059;SHT31;25763;49.972;8.568;2022-08-02T11:57:28;30.35;37.38
40059;SHT31;25763;49.972;8.568;2022-08-02T11:59:55;30.13;38.69
40059;SHT31;25763;49.972;8.568;2022-08-02T12:02:23;29.70;38.24
40059;SHT31;25763;49.972;8.568;2022-08-02T12:04:53;29.89;38.64
40059;SHT31;25763;49.972;8.568;2022-08-02T12:07:24;30.31;36.72
40059;SHT31;25763;49.972;8.568;2022-08-02T12:09:49;30.55;39.79
40059;SHT31;25763;49.972;8.568;2022-08-02T12:12:15;30.66;38.17
40059;SHT31;25763;49.972;8.568;2022-08-02T12:14:41;30.62;36.75
40059;SHT31;25763;49.972;8.568;2022-08-02T12:17:08;30.76;38.19
40059;SHT31;25763;49.972;8.568;2022-08-02T12:19:52;30.94;37.41
40059;SHT31;25763;49.972;8.568;2022-08-02T12:22:22;31.52;37.50
40059;SHT31;25763;49.972;8.568;2022-08-02T12:24:57;31.41;36.92
40059;SHT31;25763;49.972;8.568;2022-08-02T12:27:29;31.67;36.31
40059;SHT31;25763;49.972;8.568;2022-08-02T12:30:20;31.95;36.06
40059;SHT31;25763;49.972;8.568;2022-08-02T12:32:45;31.79;36.22
40059;SHT31;25763;49.972;8.568;2022-08-02T12:35:13;31.32;36.07
40059;SHT31;25763;49.972;8.568;2022-08-02T12:37:43;30.88;35.49
40059;SHT31;25763;49.972;8.568;2022-08-02T12:40:30;31.49;38.47
40059;SHT31;25763;49.972;8.568;2022-08-02T12:43:01;31.81;36.56
40059;SHT31;25763;49.972;8.568;2022-08-02T12:45:29;31.62;35.72
40059;SHT31;25763;49.972;8.568;2022-08-02T12:47:57;31.80;35.15
40059;SHT31;25763;49.972;8.568;2022-08-02T12:50:24;31.73;35.41
40059;SHT31;25763;49.972;8.568;2022-08-02T12:53:08;31.58;35.40
40059;SHT31;25763;49.972;8.568;2022-08-02T12:55:34;31.10;35.62
40059;SHT31;25763;49.972;8.568;2022-08-02T12:58:03;31.28;35.79
40059;SHT31;25763;49.972;8.568;2022-08-02T13:00:36;31.28;35.53
40059;SHT31;25763;49.972;8.568;2022-08-02T13:03:03;32.00;36.29
40059;SHT31;25763;49.972;8.568;2022-08-02T13:05:29;32.07;33.65
40059;SHT31;25763;49.972;8.568;2022-08-02T13:07:55;32.25;34.13
40059;SHT31;25763;49.972;8.568;2022-08-02T13:10:22;31.67;33.95
40059;SHT31;25763;49.972;8.568;2022-08-02T13:12:48;31.74;35.35
40059;SHT31;25763;49.972;8.568;2022-08-02T13:15:14;31.73;34.68
40059;SHT31;25763;49.972;8.568;2022-08-02T13:17:40;31.65;34.46
40059;SHT31;25763;49.972;8.568;2022-08-02T13:20:06;32.31;35.03
40059;SHT31;25763;49.972;8.568;2022-08-02T13:22:32;32.21;34.90
40059;SHT31;25763;49.972;8.568;2022-08-02T13:24:57;32.25;34.15
40059;SHT31;25763;49.972;8.568;2022-08-02T13:27:24;32.27;33.68
40059;SHT31;25763;49.972;8.568;2022-08-02T13:29:50;32.08;32.87
40059;SHT31;25763;49.972;8.568;2022-08-02T13:32:15;32.53;33.34
40059;SHT31;25763;49.972;8.568;2022-08-02T13:34:41;31.76;32.84
40059;SHT31;25763;49.972;8.568;2022-08-02T13:37:06;31.69;34.07
40059;SHT31;25763;49.972;8.568;2022-08-02T13:39:32;31.62;34.13
40059;SHT31;25763;49.972;8.568;2022-08-02T13:41:57;31.72;34.02
40059;SHT31;25763;49.972;8.568;2022-08-02T13:44:22;31.70;34.87
40059;SHT31;25763;49.972;8.568;2022-08-02T13:46:48;32.08;33.07
40059;SHT31;25763;49.972;8.568;2022-08-02T13:49:13;32.20;32.45
40059;SHT31;25763;49.972;8.568;2022-08-02T13:51:38;32.53;31.93
40059;SHT31;25763;49.972;8.568;2022-08-02T13:54:04;32.57;31.85
40059;SHT31;25763;49.972;8.568;2022-08-02T13:56:29;32.53;31.13
40059;SHT31;25763;49.972;8.568;2022-08-02T13:58:55;32.51;33.28
40059;SHT31;25763;49.972;8.568;2022-08-02T14:01:23;32.59;32.78
40059;SHT31;25763;49.972;8.568;2022-08-02T14:03:49;32.40;32.12
40059;SHT31;25763;49.972;8.568;2022-08-02T14:06:14;32.70;31.72
40059;SHT31;25763;49.972;8.568;2022-08-02T14:08:39;32.79;33.46
40059;SHT31;25763;49.972;8.568;2022-08-02T14:11:05;32.77;32.85
40059;SHT31;25763;49.972;8.568;2022-08-02T14:13:31;32.28;31.84
40059;SHT31;25763;49.972;8.568;2022-08-02T14:15:56;32.17;32.92
40059;SHT31;25763;49.972;8.568;2022-08-02T14:18:23;32.24;32.19
40059;SHT31;25763;49.972;8.568;2022-08-02T14:20:49;32.35;33.30
40059;SHT31;25763;49.972;8.568;2022-08-02T14:23:15;32.17;33.40
40059;SHT31;25763;49.972;8.568;2022-08-02T14:25:40;31.80;33.27
40059;SHT31;25763;49.972;8.568;2022-08-02T14:28:06;32.20;32.86
40059;SHT31;25763;49.972;8.568;2022-08-02T14:30:33;31.80;31.04
40059;SHT31;25763;49.972;8.568;2022-08-02T14:32:58;31.76;31.69
40059;SHT31;25763;49.972;8.568;2022-08-02T14:35:24;31.21;31.94
40059;SHT31;25763;49.972;8.568;2022-08-02T14:37:49;31.60;31.96
40059;SHT31;25763;49.972;8.568;2022-08-02T14:40:15;32.11;31.90
40059;SHT31;25763;49.972;8.568;2022-08-02T14:42:40;32.42;31.49
40059;SHT31;25763;49.972;8.568;2022-08-02T14:45:06;32.49;32.14
40059;SHT31;25763;49.972;8.568;2022-08-02T14:47:31;32.43;31.99
40059;SHT31;25763;49.972;8.568;2022-08-02T14:49:57;32.05;31.47
40059;SHT31;25763;49.972;8.568;2022-08-02T14:52:22;31.91;31.65
40059;SHT31;25763;49.972;8.568;2022-08-02T14:54:48;32.11;30.98
40059;SHT31;25763;49.972;8.568;2022-08-02T14:57:13;31.98;32.11
40059;SHT31;25763;49.972;8.568;2022-08-02T14:59:39;32.24;32.91
40059;SHT31;25763;49.972;8.568;2022-08-02T15:02:04;32.51;32.60
40059;SHT31;25763;49.972;8.568;2022-08-02T15:04:29;32.05;32.88
40059;SHT31;25763;49.972;8.568;2022-08-02T15:06:58;32.69;32.27
40059;SHT31;25763;49.972;8.568;2022-08-02T15:09:23;33.05;32.56
40059;SHT31;25763;49.972;8.568;2022-08-02T15:11:48;33.32;32.49
40059;SHT31;25763;49.972;8.568;2022-08-02T15:14:17;33.29;31.64
40059;SHT31;25763;49.972;8.568;2022-08-02T15:16:42;31.69;32.86
40059;SHT31;25763;49.972;8.568;2022-08-02T15:19:08;31.47;33.11
40059;SHT31;25763;49.972;8.568;2022-08-02T15:21:33;31.34;33.10
40059;SHT31;25763;49.972;8.568;2022-08-02T15:23:58;30.73;33.53
40059;SHT31;25763;49.972;8.568;2022-08-02T15:26:24;30.75;34.53
40059;SHT31;25763;49.972;8.568;2022-08-02T15:28:49;30.94;34.17
40059;SHT31;25763;49.972;8.568;2022-08-02T15:31:15;31.21;34.29
40059;SHT31;25763;49.972;8.568;2022-08-02T15:33:41;30.83;34.07
40059;SHT31;25763;49.972;8.568;2022-08-02T15:36:08;30.83;33.80
40059;SHT31;25763;49.972;8.568;2022-08-02T15:38:33;31.01;33.69
40059;SHT31;25763;49.972;8.568;2022-08-02T15:40:59;30.66;33.43
40059;SHT31;25763;49.972;8.568;2022-08-02T15:43:24;31.00;34.89
40059;SHT31;25763;49.972;8.568;2022-08-02T15:45:49;31.06;33.35
40059;SHT31;25763;49.972;8.568;2022-08-02T15:48:15;30.53;34.15
40059;SHT31;25763;49.972;8.568;2022-08-02T15:50:41;30.55;34.99
40059;SHT31;25763;49.972;8.568;2022-08-02T15:53:07;30.70;35.32
40059;SHT31;25763;49.972;8.568;2022-08-02T15:55:32;30.97;34.67
40059;SHT31;25763;49.972;8.568;2022-08-02T15:57:57;30.75;34.34
40059;SHT31;25763;49.972;8.568;2022-08-02T16:00:23;30.49;34.67
40059;SHT31;25763;49.972;8.568;2022-08-02T16:02:48;30.39;34.41
40059;SHT31;25763;49.972;8.568;2022-08-02T16:05:15;30.23;34.66